sensor_id;sensor_type;location;lat;lon;timestamp;pressure;altitude;pressure_sealevel;temperature;humidity
62708;BME280;48769;51.624;5.886;2023-01-30T00:01:35;101667.88;;;5.42;100.00
62708;BME280;48769;51.624;5.886;2023-01-30T00:04:00;101653.84;;;5.46;100.00
62708;BME280;48769;51.624;5.886;2023-01-30T00:06:26;101649.50;;;5.46;100.00
62708;BME280;48769;51.624;5.886;2023-01-30T00:08:51;101638.97;;;5.48;100.00
62708;BME280;48769;51.624;5.886;2023-01-30T00:11:18;101638.13;;;5.46;100.00
62708;BME280;48769;51.624;5.886;2023-01-30T00:13:46;101631.97;;;5.48;100.00
62708;BME280;48769;51.624;5.886;2023-01-30T00:16:11;101635.44;;;5.50;100.00
62708;BME280;48769;51.624;5.886;2023-01-30T00:18:38;101634.56;;;5.50;100.00
62708;BME280;48769;51.624;5.886;2023-01-30T00:21:06;101632.69;;;5.56;100.00
62708;BME280;48769;51.624;5.886;2023-01-30T00:23:33;101630.94;;;5.57;100.00
62708;BME280;48769;51.624;5.886;2023-01-30T00:25:59;101618.78;;;5.53;100.00
62708;BME280;48769;51.624;5.886;2023-01-30T00:28:25;101631.69;;;5.62;100.00
62708;BME280;48769;51.624;5.886;2023-01-30T00:30:51;101643.09;;;5.61;100.00
62708;BME280;48769;51.624;5.886;2023-01-30T00:33:18;101629.03;;;5.65;100.00
62708;BME280;48769;51.624;5.886;2023-01-30T00:35:48;101622.00;;;5.67;100.00
62708;BME280;48769;51.624;5.886;2023-01-30T00:38:14;101615.81;;;5.71;100.00
62708;BME280;48769;51.624;5.886;2023-01-30T00:40:40;101609.75;;;5.69;100.00
62708;BME280;48769;51.624;5.886;2023-01-30T00:43:06;101599.16;;;5.75;100.00
62708;BME280;48769;51.624;5.886;2023-01-30T00:45:53;101604.28;;;5.80;100.00
62708;BME280;48769;51.624;5.886;2023-01-30T00:48:37;101599.00;;;5.83;100.00
62708;BME280;48769;51.624;5.886;2023-01-30T00:51:03;101609.41;;;5.86;100.00
62708;BME280;48769;51.624;5.886;2023-01-30T00:53:28;101597.09;;;5.90;100.00
62708;BME280;48769;51.624;5.886;2023-01-30T00:55:54;101605.69;;;5.98;100.00
62708;BME280;48769;51.624;5.886;2023-01-30T00:58:21;101603.91;;;6.01;100.00
62708;BME280;48769;51.624;5.886;2023-01-30T01:00:48;101593.38;;;6.03;100.00
62708;BME280;48769;51.624;5.886;2023-01-30T01:03:13;101583.75;;;6.03;100.00
62708;BME280;48769;51.624;5.886;2023-01-30T01:05:39;101591.72;;;5.99;100.00
62708;BME280;48769;51.624;5.886;2023-01-30T01:08:04;101592.50;;;6.02;100.00
62708;BME280;48769;51.624;5.886;2023-01-30T01:10:30;101589.84;;;6.04;100.00
62708;BME280;48769;51.624;5.886;2023-01-30T01:12:56;101593.13;;;6.14;100.00
62708;BME280;48769;51.624;5.886;2023-01-30T01:15:22;101588.66;;;6.19;100.00
62708;BME280;48769;51.624;5.886;2023-01-30T01:17:48;101575.50;;;6.20;100.00
62708;BME280;48769;51.624;5.886;2023-01-30T01:20:14;101573.59;;;6.28;100.00
62708;BME280;48769;51.624;5.886;2023-01-30T01:22:40;101578.78;;;6.31;100.00
62708;BME280;48769;51.624;5.886;2023-01-30T01:25:06;101568.28;;;6.31;100.00
62708;BME280;48769;51.624;5.886;2023-01-30T01:27:31;101558.56;;;6.35;100.00
62708;BME280;48769;51.624;5.886;2023-01-30T01:29:57;101570.06;;;6.29;100.00
62708;BME280;48769;51.624;5.886;2023-01-30T01:32:22;101555.94;;;6.35;100.00
62708;BME280;48769;51.624;5.886;2023-01-30T01:34:48;101564.53;;;6.42;100.00
62708;BME280;48769;51.624;5.886;2023-01-30T01:37:13;101564.41;;;6.48;100.00
62708;BME280;48769;51.624;5.886;2023-01-30T01:39:38;101564.34;;;6.51;100.00
62708;BME280;48769;51.624;5.886;2023-01-30T01:42:25;101557.34;;;6.50;100.00
62708;BME280;48769;51.624;5.886;2023-01-30T01:47:27;101560.88;;;6.49;100.00
62708;BME280;48769;51.624;5.886;2023-01-30T01:49:53;101545.84;;;6.55;100.00
62708;BME280;48769;51.624;5.886;2023-01-30T01:52:19;101542.28;;;6.58;100.00
62708;BME280;48769;51.624;5.886;2023-01-30T01:54:52;101541.38;;;6.59;100.00
62708;BME280;48769;51.624;5.886;2023-01-30T01:57:27;101531.59;;;6.66;100.00
62708;BME280;48769;51.624;5.886;2023-01-30T02:00:02;101516.63;;;6.69;100.00
62708;BME280;48769;51.624;5.886;2023-01-30T02:02:29;101508.09;;;6.61;100.00
62708;BME280;48769;51.624;5.886;2023-01-30T02:04:57;101502.63;;;6.70;100.00
62708;BME280;48769;51.624;5.886;2023-01-30T02:07:36;101514.91;;;6.68;100.00
62708;BME280;48769;51.624;5.886;2023-01-30T02:10:04;101507.19;;;6.62;100.00
62708;BME280;48769;51.624;5.886;2023-01-30T02:12:31;101497.28;;;6.73;100.00
62708;BME280;48769;51.624;5.886;2023-01-30T02:14:57;101493.75;;;6.74;100.00
62708;BME280;48769;51.624;5.886;2023-01-30T02:17:23;101496.47;;;6.71;100.00
62708;BME280;48769;51.624;5.886;2023-01-30T02:20:01;101495.47;;;6.75;100.00
62708;BME280;48769;51.624;5.886;2023-01-30T02:33:28;101483.97;;;6.81;100.00
62708;BME280;48769;51.624;5.886;2023-01-30T02:36:07;101473.50;;;6.79;100.00
62708;BME280;48769;51.624;5.886;2023-01-30T02:38:50;101482.31;;;6.77;100.00
62708;BME280;48769;51.624;5.886;2023-01-30T02:41:46;101479.63;;;6.78;100.00
62708;BME280;48769;51.624;5.886;2023-01-30T02:44:29;101465.72;;;6.76;100.00
62708;BME280;48769;51.624;5.886;2023-01-30T02:47:09;101451.59;;;6.81;100.00
62708;BME280;48769;51.624;5.886;2023-01-30T02:49:42;101441.81;;;6.86;100.00
62708;BME280;48769;51.624;5.886;2023-01-30T02:52:11;101453.16;;;6.88;100.00
62708;BME280;48769;51.624;5.886;2023-01-30T02:54:38;101452.16;;;6.92;100.00
62708;BME280;48769;51.624;5.886;2023-01-30T02:57:16;101453.94;;;6.91;100.00
62708;BME280;48769;51.624;5.886;2023-01-30T02:59:46;101456.69;;;6.87;100.00
62708;BME280;48769;51.624;5.886;2023-01-30T03:02:27;101441.88;;;6.84;100.00
62708;BME280;48769;51.624;5.886;2023-01-30T03:05:25;101445.34;;;6.85;100.00
62708;BME280;48769;51.624;5.886;2023-01-30T03:10:31;101444.63;;;6.79;100.00
62708;BME280;48769;51.624;5.886;2023-01-30T03:13:10;101443.66;;;6.82;100.00
62708;BME280;48769;51.624;5.886;2023-01-30T03:18:18;101435.84;;;6.81;100.00
62708;BME280;48769;51.624;5.886;2023-01-30T03:20:45;101427.03;;;6.82;100.00
62708;BME280;48769;51.624;5.886;2023-01-30T03:23:10;101425.41;;;6.77;100.00
62708;BME280;48769;51.624;5.886;2023-01-30T03:25:38;101436.00;;;6.74;100.00
62708;BME280;48769;51.624;5.886;2023-01-30T03:28:04;101432.50;;;6.74;100.00
62708;BME280;48769;51.624;5.886;2023-01-30T03:30:31;101430.81;;;6.71;100.00
62708;BME280;48769;51.624;5.886;2023-01-30T03:32:56;101429.19;;;6.67;100.00
62708;BME280;48769;51.624;5.886;2023-01-30T03:35:22;101429.91;;;6.72;100.00
62708;BME280;48769;51.624;5.886;2023-01-30T03:37:50;101425.56;;;6.71;100.00
62708;BME280;48769;51.624;5.886;2023-01-30T03:40:16;101416.00;;;6.69;100.00
62708;BME280;48769;51.624;5.886;2023-01-30T03:42:42;101404.56;;;6.71;100.00
62708;BME280;48769;51.624;5.886;2023-01-30T03:45:09;101397.59;;;6.70;100.00
62708;BME280;48769;51.624;5.886;2023-01-30T03:47:34;101404.56;;;6.71;100.00
62708;BME280;48769;51.624;5.886;2023-01-30T03:50:00;101403.63;;;6.74;100.00
62708;BME280;48769;51.624;5.886;2023-01-30T03:52:25;101408.03;;;6.73;100.00
62708;BME280;48769;51.624;5.886;2023-01-30T03:54:51;101401.03;;;6.72;100.00
62708;BME280;48769;51.624;5.886;2023-01-30T03:57:16;101391.50;;;6.70;100.00
62708;BME280;48769;51.624;5.886;2023-01-30T03:59:41;101401.09;;;6.69;100.00
62708;BME280;48769;51.624;5.886;2023-01-30T04:02:07;101391.34;;;6.74;100.00
62708;BME280;48769;51.624;5.886;2023-01-30T04:04:33;101399.38;;;6.68;100.00
62708;BME280;48769;51.624;5.886;2023-01-30T04:06:58;101401.03;;;6.72;100.00
62708;BME280;48769;51.624;5.886;2023-01-30T04:09:24;101401.22;;;6.66;100.00
62708;BME280;48769;51.624;5.886;2023-01-30T04:11:49;101404.63;;;6.70;100.00
62708;BME280;48769;51.624;5.886;2023-01-30T04:14:14;101406.34;;;6.69;100.00
62708;BME280;48769;51.624;5.886;2023-01-30T04:16:40;101403.84;;;6.66;100.00
62708;BME280;48769;51.624;5.886;2023-01-30T04:19:05;101403.72;;;6.69;100.00
62708;BME280;48769;51.624;5.886;2023-01-30T04:21:30;101404.56;;;6.71;100.00
62708;BME280;48769;51.624;5.886;2023-01-30T04:23:56;101403.00;;;6.64;100.00
62708;BME280;48769;51.624;5.886;2023-01-30T04:26:21;101404.72;;;6.65;100.00
62708;BME280;48769;51.624;5.886;2023-01-30T04:28:46;101398.59;;;6.66;100.00
62708;BME280;48769;51.624;5.886;2023-01-30T04:31:12;101378.31;;;6.71;100.00
62708;BME280;48769;51.624;5.886;2023-01-30T04:33:38;101398.31;;;6.75;100.00
62708;BME280;48769;51.624;5.886;2023-01-30T04:36:05;101388.69;;;6.76;100.00
62708;BME280;48769;51.624;5.886;2023-01-30T04:38:32;101386.78;;;6.83;100.00
62708;BME280;48769;51.624;5.886;2023-01-30T04:40:58;101398.06;;;6.86;100.00
62708;BME280;48769;51.624;5.886;2023-01-30T04:43:25;101398.06;;;6.86;100.00
62708;BME280;48769;51.624;5.886;2023-01-30T04:45:51;101402.53;;;6.83;100.00
62708;BME280;48769;51.624;5.886;2023-01-30T04:48:18;101396.19;;;6.90;100.00
62708;BME280;48769;51.624;5.886;2023-01-30T04:50:47;101400.38;;;6.97;100.00
62708;BME280;48769;51.624;5.886;2023-01-30T04:53:13;101402.00;;;7.01;100.00
62708;BME280;48769;51.624;5.886;2023-01-30T04:55:39;101400.22;;;7.03;100.00
62708;BME280;48769;51.624;5.886;2023-01-30T04:58:04;101399.25;;;7.06;100.00
62708;BME280;48769;51.624;5.886;2023-01-30T05:00:30;101404.53;;;7.04;100.00
62708;BME280;48769;51.624;5.886;2023-01-30T05:02:55;101407.09;;;7.07;100.00
62708;BME280;48769;51.624;5.886;2023-01-30T05:05:21;101407.00;;;7.10;100.00
62708;BME280;48769;51.624;5.886;2023-01-30T05:07:47;101401.66;;;7.13;100.00
62708;BME280;48769;51.624;5.886;2023-01-30T05:10:13;101412.00;;;7.19;100.00
62708;BME280;48769;51.624;5.886;2023-01-30T05:12:39;101395.38;;;7.19;100.00
62708;BME280;48769;51.624;5.886;2023-01-30T05:15:05;101392.66;;;7.22;100.00
62708;BME280;48769;51.624;5.886;2023-01-30T05:17:31;101385.56;;;7.25;100.00
62708;BME280;48769;51.624;5.886;2023-01-30T05:19:56;101387.19;;;7.30;100.00
62708;BME280;48769;51.624;5.886;2023-01-30T05:22:22;101385.38;;;7.32;100.00
62708;BME280;48769;51.624;5.886;2023-01-30T05:24:47;101391.53;;;7.31;100.00
62708;BME280;48769;51.624;5.886;2023-01-30T05:27:13;101398.38;;;7.36;100.00
62708;BME280;48769;51.624;5.886;2023-01-30T05:29:38;101391.25;;;7.40;100.00
62708;BME280;48769;51.624;5.886;2023-01-30T05:32:03;101397.25;;;7.45;100.00
62708;BME280;48769;51.624;5.886;2023-01-30T05:34:29;101389.19;;;7.51;100.00
62708;BME280;48769;51.624;5.886;2023-01-30T05:36:54;101388.28;;;7.52;100.00
62708;BME280;48769;51.624;5.886;2023-01-30T05:39:19;101399.69;;;7.51;100.00
62708;BME280;48769;51.624;5.886;2023-01-30T05:41:45;101386.38;;;7.57;100.00
62708;BME280;48769;51.624;5.886;2023-01-30T05:44:10;101395.16;;;7.56;100.00
62708;BME280;48769;51.624;5.886;2023-01-30T05:46:35;101392.59;;;7.53;100.00
62708;BME280;48769;51.624;5.886;2023-01-30T05:49:01;101396.97;;;7.54;100.00
62708;BME280;48769;51.624;5.886;2023-01-30T05:51:28;101402.50;;;7.45;100.00
62708;BME280;48769;51.624;5.886;2023-01-30T05:53:53;101401.50;;;7.49;100.00
62708;BME280;48769;51.624;5.886;2023-01-30T05:56:19;101390.34;;;7.41;100.00
62708;BME280;48769;51.624;5.886;2023-01-30T05:58:55;101397.53;;;7.36;100.00
62708;BME280;48769;51.624;5.886;2023-01-30T06:01:21;101410.00;;;7.28;100.00
62708;BME280;48769;51.624;5.886;2023-01-30T06:03:47;101415.25;;;7.28;100.00
62708;BME280;48769;51.624;5.886;2023-01-30T06:06:13;101414.47;;;7.25;100.00
62708;BME280;48769;51.624;5.886;2023-01-30T06:08:39;101403.03;;;7.26;100.00
62708;BME280;48769;51.624;5.886;2023-01-30T06:11:08;101408.22;;;7.30;100.00
62708;BME280;48769;51.624;5.886;2023-01-30T06:13:34;101410.09;;;7.24;100.00
62708;BME280;48769;51.624;5.886;2023-01-30T06:16:00;101410.78;;;7.31;100.00
62708;BME280;48769;51.624;5.886;2023-01-30T06:18:26;101413.47;;;7.30;100.00
62708;BME280;48769;51.624;5.886;2023-01-30T06:20:52;101419.41;;;7.36;100.00
62708;BME280;48769;51.624;5.886;2023-01-30T06:23:19;101424.72;;;7.35;100.00
62708;BME280;48769;51.624;5.886;2023-01-30T06:25:46;101428.22;;;7.34;100.00
62708;BME280;48769;51.624;5.886;2023-01-30T06:28:12;101430.84;;;7.34;100.00
62708;BME280;48769;51.624;5.886;2023-01-30T06:30:38;101436.78;;;7.42;100.00
62708;BME280;48769;51.624;5.886;2023-01-30T06:33:04;101439.66;;;7.33;100.00
62708;BME280;48769;51.624;5.886;2023-01-30T06:35:30;101451.88;;;7.34;100.00
62708;BME280;48769;51.624;5.886;2023-01-30T06:37:55;101447.47;;;7.36;100.00
62708;BME280;48769;51.624;5.886;2023-01-30T06:40:20;101459.69;;;7.37;100.00
62708;BME280;48769;51.624;5.886;2023-01-30T06:42:47;101464.94;;;7.37;100.00
62708;BME280;48769;51.624;5.886;2023-01-30T06:45:17;101458.19;;;7.28;100.00
62708;BME280;48769;51.624;5.886;2023-01-30T06:47:50;101448.53;;;7.29;100.00
62708;BME280;48769;51.624;5.886;2023-01-30T06:50:18;101456.63;;;7.21;100.00
62708;BME280;48769;51.624;5.886;2023-01-30T06:52:45;101446.41;;;7.10;100.00
62708;BME280;48769;51.624;5.886;2023-01-30T06:55:13;101454.63;;;6.98;100.00
62708;BME280;48769;51.624;5.886;2023-01-30T06:57:38;101459.88;;;6.98;100.00
62708;BME280;48769;51.624;5.886;2023-01-30T07:00:05;101460.94;;;6.92;100.00
62708;BME280;48769;51.624;5.886;2023-01-30T07:02:32;101452.22;;;6.90;100.00
62708;BME280;48769;51.624;5.886;2023-01-30T07:05:03;101438.41;;;6.82;100.00
62708;BME280;48769;51.624;5.886;2023-01-30T07:07:30;101450.69;;;6.82;100.00
62708;BME280;48769;51.624;5.886;2023-01-30T07:09:56;101441.09;;;6.81;100.00
62708;BME280;48769;51.624;5.886;2023-01-30T07:12:22;101443.03;;;6.72;100.00
62708;BME280;48769;51.624;5.886;2023-01-30T07:14:49;101452.66;;;6.73;100.00
62708;BME280;48769;51.624;5.886;2023-01-30T07:17:15;101443.13;;;6.69;100.00
62708;BME280;48769;51.624;5.886;2023-01-30T07:19:41;101444.97;;;6.66;100.00
62708;BME280;48769;51.624;5.886;2023-01-30T07:22:09;101450.25;;;6.64;100.00
62708;BME280;48769;51.624;5.886;2023-01-30T07:24:35;101446.84;;;6.61;100.00
62708;BME280;48769;51.624;5.886;2023-01-30T07:27:00;101457.38;;;6.59;100.00
62708;BME280;48769;51.624;5.886;2023-01-30T07:29:25;101452.19;;;6.58;100.00
62708;BME280;48769;51.624;5.886;2023-01-30T07:31:51;101451.31;;;6.57;100.00
62708;BME280;48769;51.624;5.886;2023-01-30T07:34:16;101456.50;;;6.60;100.00
62708;BME280;48769;51.624;5.886;2023-01-30T07:36:42;101474.97;;;6.55;100.00
62708;BME280;48769;51.624;5.886;2023-01-30T07:39:07;101478.31;;;6.62;100.00
62708;BME280;48769;51.624;5.886;2023-01-30T07:41:34;101481.84;;;6.61;100.00
62708;BME280;48769;51.624;5.886;2023-01-30T07:44:00;101478.31;;;6.62;100.00
62708;BME280;48769;51.624;5.886;2023-01-30T07:46:25;101477.34;;;6.66;100.00
62708;BME280;48769;51.624;5.886;2023-01-30T07:48:52;101481.53;;;6.73;100.00
62708;BME280;48769;51.624;5.886;2023-01-30T07:51:18;101479.78;;;6.72;100.00
62708;BME280;48769;51.624;5.886;2023-01-30T07:53:43;101478.16;;;6.68;100.00
62708;BME280;48769;51.624;5.886;2023-01-30T07:56:09;101480.97;;;6.61;100.00
62708;BME280;48769;51.624;5.886;2023-01-30T07:58:35;101483.53;;;6.64;100.00
62708;BME280;48769;51.624;5.886;2023-01-30T08:01:01;101489.56;;;6.67;100.00
62708;BME280;48769;51.624;5.886;2023-01-30T08:03:26;101506.88;;;6.74;100.00
62708;BME280;48769;51.624;5.886;2023-01-30T08:05:52;101491.97;;;6.76;100.00
62708;BME280;48769;51.624;5.886;2023-01-30T08:08:18;101485.69;;;6.82;100.00
62708;BME280;48769;51.624;5.886;2023-01-30T08:10:43;101485.66;;;6.84;100.00
62708;BME280;48769;51.624;5.886;2023-01-30T08:13:09;101496.06;;;6.87;100.00
62708;BME280;48769;51.624;5.886;2023-01-30T08:15:34;101503.03;;;6.88;100.00
62708;BME280;48769;51.624;5.886;2023-01-30T08:18:00;101505.69;;;6.88;100.00
62708;BME280;48769;51.624;5.886;2023-01-30T08:20:27;101499.44;;;6.92;100.00
62708;BME280;48769;51.624;5.886;2023-01-30T08:22:53;101500.94;;;7.02;100.00
62708;BME280;48769;51.624;5.886;2023-01-30T08:25:19;101506.38;;;6.94;100.00
62708;BME280;48769;51.624;5.886;2023-01-30T08:27:44;101501.81;;;7.01;100.00
62708;BME280;48769;51.624;5.886;2023-01-30T08:30:11;101500.03;;;7.03;100.00
62708;BME280;48769;51.624;5.886;2023-01-30T08:32:36;101504.28;;;7.07;100.00
62708;BME280;48769;51.624;5.886;2023-01-30T08:35:01;101508.56;;;7.11;100.00
62708;BME280;48769;51.624;5.886;2023-01-30T08:37:27;101514.50;;;7.18;100.00
62708;BME280;48769;51.624;5.886;2023-01-30T08:39:52;101518.81;;;7.20;100.00
62708;BME280;48769;51.624;5.886;2023-01-30T08:42:18;101527.47;;;7.25;100.00
62708;BME280;48769;51.624;5.886;2023-01-30T08:44:43;101530.66;;;7.37;100.00
62708;BME280;48769;51.624;5.886;2023-01-30T08:47:08;101516.50;;;8.31;100.00
62708;BME280;48769;51.624;5.886;2023-01-30T08:49:34;101514.75;;;9.11;100.00
62708;BME280;48769;51.624;5.886;2023-01-30T08:51:59;101510.97;;;10.60;100.00
62708;BME280;48769;51.624;5.886;2023-01-30T08:54:24;101510.16;;;11.60;100.00
62708;BME280;48769;51.624;5.886;2023-01-30T08:56:50;101494.19;;;12.01;100.00
62708;BME280;48769;51.624;5.886;2023-01-30T08:59:15;101502.59;;;12.47;100.00
62708;BME280;48769;51.624;5.886;2023-01-30T09:01:40;101507.13;;;12.62;100.00
62708;BME280;48769;51.624;5.886;2023-01-30T09:04:05;101509.50;;;13.20;100.00
62708;BME280;48769;51.624;5.886;2023-01-30T09:06:31;101501.09;;;13.63;100.00
62708;BME280;48769;51.624;5.886;2023-01-30T09:08:58;101503.03;;;13.92;100.00
62708;BME280;48769;51.624;5.886;2023-01-30T09:11:23;101497.88;;;14.37;100.00
62708;BME280;48769;51.624;5.886;2023-01-30T09:13:49;101495.25;;;14.21;100.00
62708;BME280;48769;51.624;5.886;2023-01-30T09:16:14;101498.19;;;14.62;100.00
62708;BME280;48769;51.624;5.886;2023-01-30T09:18:41;101501.75;;;14.15;95.65
62708;BME280;48769;51.624;5.886;2023-01-30T09:21:08;101499.25;;;14.90;95.48
62708;BME280;48769;51.624;5.886;2023-01-30T09:23:34;101492.84;;;14.78;89.79
62708;BME280;48769;51.624;5.886;2023-01-30T09:25:59;101504.47;;;14.61;90.90
62708;BME280;48769;51.624;5.886;2023-01-30T09:28:25;101509.19;;;14.40;90.39
62708;BME280;48769;51.624;5.886;2023-01-30T09:30:51;101499.16;;;14.61;88.38
62708;BME280;48769;51.624;5.886;2023-01-30T09:33:16;101502.56;;;14.47;87.63
62708;BME280;48769;51.624;5.886;2023-01-30T09:35:46;101506.56;;;14.56;88.57
62708;BME280;48769;51.624;5.886;2023-01-30T09:38:12;101516.75;;;12.99;92.61
62708;BME280;48769;51.624;5.886;2023-01-30T09:40:47;101536.84;;;11.95;99.25
62708;BME280;48769;51.624;5.886;2023-01-30T09:43:26;101546.84;;;11.28;100.00
62708;BME280;48769;51.624;5.886;2023-01-30T09:46:22;101541.50;;;10.67;100.00
62708;BME280;48769;51.624;5.886;2023-01-30T09:51:57;101551.38;;;10.40;100.00
62708;BME280;48769;51.624;5.886;2023-01-30T09:54:30;101550.81;;;10.08;100.00
62708;BME280;48769;51.624;5.886;2023-01-30T09:59:51;101548.41;;;9.78;100.00
62708;BME280;48769;51.624;5.886;2023-01-30T10:02:40;101541.91;;;9.64;100.00
62708;BME280;48769;51.624;5.886;2023-01-30T10:05:08;101562.78;;;9.70;100.00
62708;BME280;48769;51.624;5.886;2023-01-30T10:10:33;101568.47;;;9.34;100.00
62708;BME280;48769;51.624;5.886;2023-01-30T10:21:02;101580.34;;;9.21;100.00
62708;BME280;48769;51.624;5.886;2023-01-30T10:23:56;101574.53;;;9.11;100.00
62708;BME280;48769;51.624;5.886;2023-01-30T10:26:26;101581.28;;;9.20;100.00
62708;BME280;48769;51.624;5.886;2023-01-30T10:29:05;101576.59;;;9.28;100.00
62708;BME280;48769;51.624;5.886;2023-01-30T10:32:00;101584.19;;;9.37;100.00
62708;BME280;48769;51.624;5.886;2023-01-30T10:34:36;101582.63;;;9.56;100.00
62708;BME280;48769;51.624;5.886;2023-01-30T10:37:13;101587.50;;;9.42;100.00
62708;BME280;48769;51.624;5.886;2023-01-30T10:39:49;101570.72;;;9.45;100.00
62708;BME280;48769;51.624;5.886;2023-01-30T10:42:20;101580.41;;;9.44;100.00
62708;BME280;48769;51.624;5.886;2023-01-30T10:44:48;101592.00;;;9.40;100.00
62708;BME280;48769;51.624;5.886;2023-01-30T10:47:28;101585.03;;;9.38;100.00
62708;BME280;48769;51.624;5.886;2023-01-30T10:50:06;101594.41;;;9.46;100.00
62708;BME280;48769;51.624;5.886;2023-01-30T10:55:36;101611.56;;;9.33;100.00
62708;BME280;48769;51.624;5.886;2023-01-30T11:01:04;101594.94;;;9.31;100.00
62708;BME280;48769;51.624;5.886;2023-01-30T11:06:25;101594.13;;;9.29;100.00
62708;BME280;48769;51.624;5.886;2023-01-30T11:08:52;101596.63;;;9.33;100.00
62708;BME280;48769;51.624;5.886;2023-01-30T11:14:07;101596.66;;;9.57;100.00
62708;BME280;48769;51.624;5.886;2023-01-30T11:16:54;101598.34;;;9.59;100.00
62708;BME280;48769;51.624;5.886;2023-01-30T11:19:30;101597.81;;;9.50;100.00
62708;BME280;48769;51.624;5.886;2023-01-30T11:22:02;101596.13;;;9.47;100.00
62708;BME280;48769;51.624;5.886;2023-01-30T11:24:41;101589.16;;;9.46;100.00
62708;BME280;48769;51.624;5.886;2023-01-30T11:27:38;101604.09;;;9.71;100.00
62708;BME280;48769;51.624;5.886;2023-01-30T11:32:37;101606.16;;;9.63;100.00
62708;BME280;48769;51.624;5.886;2023-01-30T11:37:34;101608.56;;;9.69;100.00
62708;BME280;48769;51.624;5.886;2023-01-30T11:40:18;101612.22;;;9.65;100.00
62708;BME280;48769;51.624;5.886;2023-01-30T11:42:50;101601.22;;;9.77;100.00
62708;BME280;48769;51.624;5.886;2023-01-30T11:45:24;101596.66;;;9.82;100.00
62708;BME280;48769;51.624;5.886;2023-01-30T11:47:56;101589.19;;;9.93;100.00
62708;BME280;48769;51.624;5.886;2023-01-30T11:50:28;101588.28;;;10.18;100.00
62708;BME280;48769;51.624;5.886;2023-01-30T11:53:00;101591.34;;;11.18;100.00
62708;BME280;48769;51.624;5.886;2023-01-30T11:55:26;101588.97;;;10.90;100.00
62708;BME280;48769;51.624;5.886;2023-01-30T11:57:55;101592.19;;;10.55;100.00
62708;BME280;48769;51.624;5.886;2023-01-30T12:00:36;101593.78;;;10.59;100.00
62708;BME280;48769;51.624;5.886;2023-01-30T12:03:04;101599.66;;;10.65;100.00
62708;BME280;48769;51.624;5.886;2023-01-30T12:05:32;101605.84;;;10.19;100.00
62708;BME280;48769;51.624;5.886;2023-01-30T12:10:53;101598.66;;;10.46;100.00
62708;BME280;48769;51.624;5.886;2023-01-30T12:13:27;101597.38;;;11.22;99.98
62708;BME280;48769;51.624;5.886;2023-01-30T12:16:24;101602.09;;;11.96;96.90
62708;BME280;48769;51.624;5.886;2023-01-30T12:22:07;101607.53;;;10.45;100.00
62708;BME280;48769;51.624;5.886;2023-01-30T12:24:49;101612.59;;;10.27;100.00
62708;BME280;48769;51.624;5.886;2023-01-30T12:27:36;101605.53;;;10.04;100.00
62708;BME280;48769;51.624;5.886;2023-01-30T12:32:43;101606.31;;;10.06;100.00
62708;BME280;48769;51.624;5.886;2023-01-30T12:35:16;101609.97;;;10.27;100.00
62708;BME280;48769;51.624;5.886;2023-01-30T12:37:44;101614.81;;;10.38;100.00
62708;BME280;48769;51.624;5.886;2023-01-30T12:48:29;101625.03;;;11.13;99.66
62708;BME280;48769;51.624;5.886;2023-01-30T13:17:48;101654.97;;;10.23;100.00
62708;BME280;48769;51.624;5.886;2023-01-30T13:20:43;101673.00;;;10.12;100.00
62708;BME280;48769;51.624;5.886;2023-01-30T13:23:24;101667.88;;;10.07;100.00
62708;BME280;48769;51.624;5.886;2023-01-30T13:26:07;101665.88;;;10.14;100.00
62708;BME280;48769;51.624;5.886;2023-01-30T13:28:51;101669.56;;;10.10;100.00
62708;BME280;48769;51.624;5.886;2023-01-30T13:31:23;101680.00;;;10.13;100.00
62708;BME280;48769;51.624;5.886;2023-01-30T13:34:04;101674.78;;;10.11;100.00
62708;BME280;48769;51.624;5.886;2023-01-30T13:36:41;101659.09;;;10.06;100.00
62708;BME280;48769;51.624;5.886;2023-01-30T13:39:22;101677.22;;;9.92;99.45
62708;BME280;48769;51.624;5.886;2023-01-30T13:41:53;101675.25;;;9.97;99.91
62708;BME280;48769;51.624;5.886;2023-01-30T13:44:25;101680.31;;;10.03;99.18
62708;BME280;48769;51.624;5.886;2023-01-30T13:46:53;101676.03;;;10.01;99.33
62708;BME280;48769;51.624;5.886;2023-01-30T13:51:47;101678.50;;;10.05;100.00
62708;BME280;48769;51.624;5.886;2023-01-30T13:54:30;101684.84;;;10.00;100.00
62708;BME280;48769;51.624;5.886;2023-01-30T13:57:14;101703.06;;;9.82;100.00
62708;BME280;48769;51.624;5.886;2023-01-30T14:00:07;101709.22;;;9.83;100.00
62708;BME280;48769;51.624;5.886;2023-01-30T14:13:53;101748.75;;;9.58;100.00
62708;BME280;48769;51.624;5.886;2023-01-30T14:16:23;101749.97;;;9.48;100.00
62708;BME280;48769;51.624;5.886;2023-01-30T14:18:48;101755.91;;;9.54;100.00
62708;BME280;48769;51.624;5.886;2023-01-30T14:21:17;101750.53;;;9.57;100.00
62708;BME280;48769;51.624;5.886;2023-01-30T14:23:55;101761.38;;;9.48;100.00
62708;BME280;48769;51.624;5.886;2023-01-30T14:34:43;101783.13;;;9.55;100.00
62708;BME280;48769;51.624;5.886;2023-01-30T14:39:54;101793.66;;;9.56;100.00
62708;BME280;48769;51.624;5.886;2023-01-30T14:42:30;101794.66;;;9.52;100.00
62708;BME280;48769;51.624;5.886;2023-01-30T14:45:16;101788.56;;;9.77;100.00
62708;BME280;48769;51.624;5.886;2023-01-30T14:48:27;101801.28;;;9.66;100.00
62708;BME280;48769;51.624;5.886;2023-01-30T14:51:30;101811.63;;;9.72;100.00
62708;BME280;48769;51.624;5.886;2023-01-30T14:56:47;101807.03;;;9.50;100.00
62708;BME280;48769;51.624;5.886;2023-01-30T15:01:58;101816.38;;;9.32;100.00
62708;BME280;48769;51.624;5.886;2023-01-30T15:07:00;101830.81;;;9.21;100.00
62708;BME280;48769;51.624;5.886;2023-01-30T15:09:30;101843.81;;;9.27;100.00